Time;durP1;ratioP1;P1;durP2;ratioP2;P2;SDS_P1;SDS_P2;PMS_P1;PMS_P2;Temp;Humidity;BMP_temperature;BMP_pressure;BME280_temperature;BME280_humidity;BME280_pressure;Samples;Min_cycle;Max_cycle;Signal;HPM_P1;HPM_P2
2022/08/12 00:44:32;;;;;;;6.65;2.40;;;19.10;95.30;;;;;;5041367;28;20625;-76
2022/08/12 00:47:00;;;;;;;4.45;2.05;;;19.50;92.10;;;;;;5039809;28;20055;-76
2022/08/12 00:49:28;;;;;;;4.72;2.28;;;19.50;93.40;;;;;;5039166;28;20652;-75
2022/08/12 00:52:05;;;;;;;4.55;2.33;;;19.50;93.90;;;;;;5040423;28;20650;-76
2022/08/12 00:54:42;;;;;;;4.53;2.35;;;19.60;95.00;;;;;;5039476;28;20217;-76
2022/08/12 00:57:29;;;;;;;9.63;2.60;;;18.80;95.60;;;;;;5038188;28;20017;-76
2022/08/12 00:59:57;;;;;;;5.85;2.63;;;18.40;96.60;;;;;;5039128;28;20017;-76
2022/08/12 01:02:31;;;;;;;6.07;2.72;;;19.30;94.40;;;;;;5039118;28;20027;-76
2022/08/12 01:14:05;;;;;;;4.43;2.22;;;19.20;94.50;;;;;;5038565;28;20082;-76
2022/08/12 01:16:34;;;;;;;4.65;2.22;;;19.00;93.40;;;;;;5007512;28;20090;-76
2022/08/12 01:19:02;;;;;;;6.25;2.15;;;;;;;;;;5037061;28;20029;-75
2022/08/12 01:22:01;;;;;;;6.05;2.47;;;19.20;93.70;;;;;;5038372;28;20023;-76
2022/08/12 01:24:54;;;;;;;6.00;2.28;;;18.90;95.20;;;;;;5037068;28;20606;-77
2022/08/12 01:27:22;;;;;;;6.10;2.97;;;18.20;95.10;;;;;;5038485;28;20028;-76
2022/08/12 01:29:51;;;;;;;6.10;2.53;;;18.70;95.60;;;;;;5036702;28;20194;-75
2022/08/12 01:32:19;;;;;;;5.05;2.05;;;19.20;96.20;;;;;;5038041;28;20060;-76
2022/08/12 01:34:54;;;;;;;3.83;1.95;;;18.70;96.30;;;;;;5036564;28;20017;-76
2022/08/12 01:37:24;;;;;;;5.00;2.40;;;18.40;93.40;;;;;;5039286;28;20371;-75
2022/08/12 01:39:53;;;;;;;8.18;2.80;;;18.20;95.40;;;;;;5039437;28;20025;-76
2022/08/12 01:42:24;;;;;;;4.82;2.25;;;18.10;94.50;;;;;;5039266;28;20108;-77
2022/08/12 01:44:54;;;;;;;7.38;2.47;;;18.00;95.50;;;;;;5039185;28;20028;-77
2022/08/12 01:48:05;;;;;;;5.50;2.40;;;18.10;97.30;;;;;;5037159;28;20695;-77
2022/08/12 01:50:58;;;;;;;5.72;2.03;;;18.60;96.30;;;;;;5029191;28;20025;-76
2022/08/12 01:53:30;;;;;;;4.53;1.90;;;18.80;94.50;;;;;;5037933;28;20013;-77
2022/08/12 01:55:57;;;;;;;5.13;1.90;;;19.00;95.30;;;;;;5037173;28;20567;-75
2022/08/12 02:01:35;;;;;;;4.50;1.90;;;19.20;94.40;;;;;;5038382;28;20086;-77
2022/08/12 02:12:57;;;;;;;5.97;2.40;;;22.80;95.90;;;;;;5037529;28;20036;-77
2022/08/12 02:15:31;;;;;;;5.57;2.10;;;19.20;94.10;;;;;;5037583;28;20038;-77
2022/08/12 02:18:03;;;;;;;;;;;19.10;94.70;;;;;;5038075;28;20055;-76
2022/08/12 02:20:49;;;;;;;7.00;2.72;;;19.60;94.60;;;;;;5037563;28;19955;-76
2022/08/12 02:23:18;;;;;;;8.20;3.58;;;19.40;93.80;;;;;;5037305;28;20009;-77
2022/08/12 02:25:46;;;;;;;7.28;2.97;;;19.70;92.90;;;;;;5036536;28;20029;-77
2022/08/12 02:28:12;;;;;;;5.80;2.58;;;19.50;94.00;;;;;;5038023;28;20651;-77
2022/08/12 02:30:39;;;;;;;8.18;2.90;;;19.60;94.10;;;;;;5038488;28;20017;-76
2022/08/12 02:33:05;;;;;;;6.55;2.72;;;19.80;93.80;;;;;;5038547;28;20078;-76
2022/08/12 02:35:34;;;;;;;8.35;3.00;;;20.10;93.20;;;;;;5037849;28;20048;-77
2022/08/12 02:38:04;;;;;;;7.82;2.70;;;20.30;91.80;;;;;;5038069;28;20044;-76
2022/08/12 02:40:33;;;;;;;6.38;2.42;;;21.20;93.50;;;;;;5036486;28;20056;-77
2022/08/12 02:43:11;;;;;;;8.07;2.90;;;20.10;93.30;;;;;;5036872;28;20071;-77
2022/08/12 02:45:44;;;;;;;8.88;2.40;;;20.00;92.60;;;;;;5040110;28;20009;-76
2022/08/12 02:48:16;;;;;;;7.88;4.05;;;20.30;92.90;;;;;;5042556;28;20021;-76
2022/08/12 02:50:47;;;;;;;6.65;2.92;;;20.20;92.80;;;;;;5043494;28;20101;-80
2022/08/12 02:53:14;;;;;;;6.97;2.75;;;20.50;92.70;;;;;;5044321;28;20071;-75
2022/08/12 02:55:40;;;;;;;6.15;2.78;;;21.00;91.90;;;;;;5043887;28;20338;-75
2022/08/12 02:58:08;;;;;;;5.70;2.72;;;20.00;92.20;;;;;;5042497;28;20013;-78
2022/08/12 03:00:36;;;;;;;5.95;2.47;;;19.20;91.40;;;;;;5041005;28;20504;-76
2022/08/12 03:03:06;;;;;;;5.97;2.42;;;17.90;92.70;;;;;;5042154;28;20095;-78
2022/08/12 03:05:36;;;;;;;5.88;2.30;;;18.30;94.00;;;;;;5041212;28;20017;-78
2022/08/12 03:08:08;;;;;;;4.53;2.20;;;17.90;94.20;;;;;;5041683;28;20225;-76
2022/08/12 03:11:07;;;;;;;;;;;;;;;;;;;;;
2022/08/12 03:14:34;;;;;;;;;;;;;;;;;;;;;
2022/08/12 03:21:00;;;;;;;4.28;2.28;;;16.30;97.40;;;;;;5000917;28;20125;-76
2022/08/12 03:23:43;;;;;;;6.50;2.47;;;15.80;99.20;;;;;;5001245;28;20068;-81
2022/08/12 03:26:10;;;;;;;6.75;2.90;;;17.20;99.90;;;;;;5017189;28;20227;-78
2022/08/12 03:28:58;;;;;;;7.68;3.10;;;16.50;99.70;;;;;;5017588;28;20025;-73
2022/08/12 03:31:29;;;;;;;6.43;2.40;;;14.10;99.90;;;;;;5017400;28;20542;-77
2022/08/12 03:34:05;;;;;;;6.72;2.50;;;18.20;99.90;;;;;;5001131;28;20588;-79
2022/08/12 03:36:33;;;;;;;5.38;2.13;;;18.90;98.70;;;;;;5017032;28;20053;-76
2022/08/12 03:42:24;;;;;;;5.15;2.47;;;20.20;96.70;;;;;;5017293;28;20061;-76
2022/08/12 04:01:56;;;;;;;5.25;2.47;;;19.70;94.90;;;;;;5039845;28;20059;-76
2022/08/12 04:04:25;;;;;;;5.85;2.22;;;20.00;94.50;;;;;;5037686;28;20667;-77
2022/08/12 04:06:51;;;;;;;4.28;1.90;;;20.10;94.00;;;;;;5037747;28;20021;-76
2022/08/12 04:09:20;;;;;;;5.82;2.55;;;20.20;94.30;;;;;;5039479;28;20033;-77
2022/08/12 04:14:34;;;;;;;9.07;2.65;;;19.90;93.40;;;;;;5039582;28;20031;-76
2022/08/12 04:17:01;;;;;;;6.75;2.45;;;20.40;93.20;;;;;;5039678;28;20027;-79
2022/08/12 04:19:28;;;;;;;5.32;2.55;;;20.50;93.20;;;;;;5039533;28;20372;-76
2022/08/12 04:21:54;;;;;;;7.10;3.50;;;20.60;93.00;;;;;;5039679;28;20096;-80
2022/08/12 04:24:23;;;;;;;9.95;3.35;;;20.50;92.90;;;;;;5039634;28;20009;-82
2022/08/12 04:26:49;;;;;;;7.45;2.38;;;20.60;93.10;;;;;;5039417;28;20013;-77
2022/08/12 04:29:15;;;;;;;6.05;2.63;;;20.80;93.10;;;;;;5039511;28;20017;-80
2022/08/12 04:31:42;;;;;;;5.20;2.35;;;17.40;92.60;;;;;;5039464;28;20044;-76
2022/08/12 04:34:10;;;;;;;6.97;3.40;;;20.50;92.00;;;;;;5048210;28;20090;-76
2022/08/12 04:36:37;;;;;;;5.00;2.47;;;20.60;92.80;;;;;;5046903;28;20052;-76
2022/08/12 04:39:06;;;;;;;5.47;2.90;;;20.50;92.40;;;;;;5043181;28;20028;-76
2022/08/12 04:41:33;;;;;;;5.68;2.65;;;20.50;92.50;;;;;;5045903;28;20032;-75
2022/08/12 04:43:59;;;;;;;6.63;2.83;;;23.90;93.50;;;;;;5040064;28;20020;-75
2022/08/12 04:46:26;;;;;;;5.80;2.58;;;20.40;92.70;;;;;;5039570;28;20045;-80
2022/08/12 04:48:53;;;;;;;4.40;2.33;;;20.50;92.50;;;;;;5040197;28;20016;-76
2022/08/12 04:51:20;;;;;;;4.72;2.53;;;20.50;92.80;;;;;;5038014;28;20074;-78
2022/08/12 04:53:47;;;;;;;5.07;2.40;;;20.40;92.70;;;;;;5039148;28;20013;-77
2022/08/12 04:56:14;;;;;;;5.72;2.35;;;20.40;92.80;;;;;;5037347;28;20106;-76
2022/08/12 04:58:40;;;;;;;5.72;2.72;;;20.60;92.90;;;;;;5038885;28;20013;-77
2022/08/12 05:01:07;;;;;;;6.95;2.58;;;20.40;92.50;;;;;;5037807;28;20052;-78
2022/08/12 05:03:42;;;;;;;6.32;2.78;;;20.30;93.10;;;;;;5038803;28;20051;-76
2022/08/12 05:06:12;;;;;;;6.20;2.65;;;19.90;92.30;;;;;;5038641;28;20717;-76
2022/08/12 05:08:38;;;;;;;4.95;2.35;;;18.50;92.60;;;;;;5038497;28;20031;-76
2022/08/12 05:11:04;;;;;;;6.78;2.72;;;18.50;93.20;;;;;;5036044;28;20574;-76
2022/08/12 05:13:37;;;;;;;6.15;2.70;;;20.00;93.30;;;;;;5038563;28;20032;-76
2022/08/12 05:16:04;;;;;;;8.98;3.03;;;20.20;92.90;;;;;;5037291;28;20510;-76
2022/08/12 05:18:31;;;;;;;6.72;2.28;;;20.10;92.60;;;;;;5038530;28;20524;-77
2022/08/12 05:20:58;;;;;;;4.93;2.15;;;20.10;92.10;;;;;;5038379;28;20032;-76
2022/08/12 05:23:24;;;;;;;5.93;2.50;;;19.90;93.00;;;;;;5037023;28;20017;-76
2022/08/12 05:25:55;;;;;;;5.57;2.45;;;19.50;92.30;;;;;;5038597;28;20025;-80
2022/08/12 05:28:21;;;;;;;8.15;2.40;;;19.50;93.70;;;;;;5038443;28;20025;-77
2022/08/12 05:30:47;;;;;;;3.75;1.98;;;19.50;93.90;;;;;;5038329;28;20036;-76
2022/08/12 05:33:14;;;;;;;4.20;2.28;;;20.20;93.40;;;;;;5036171;28;20124;-82
2022/08/12 05:35:43;;;;;;;4.22;2.13;;;20.00;93.30;;;;;;5038163;28;20158;-75
2022/08/12 05:40:55;;;;;;;10.00;2.28;;;20.60;92.70;;;;;;5038108;28;20087;-77
2022/08/12 05:43:21;;;;;;;6.85;2.17;;;20.60;92.10;;;;;;5038653;28;20033;-78
2022/08/12 05:45:48;;;;;;;5.68;2.38;;;20.80;92.10;;;;;;5035645;28;20558;-76
2022/08/12 05:48:18;;;;;;;5.68;2.53;;;20.80;92.10;;;;;;5036990;28;20025;-79
2022/08/12 05:50:44;;;;;;;5.22;2.60;;;20.80;92.20;;;;;;5037749;28;20009;-75
2022/08/12 05:53:12;;;;;;;6.30;2.20;;;21.00;91.60;;;;;;5035933;28;20059;-76
2022/08/12 05:55:38;;;;;;;5.78;2.33;;;21.20;91.50;;;;;;5037831;28;20744;-76
2022/08/12 05:58:06;;;;;;;5.43;1.98;;;21.40;91.00;;;;;;5038810;28;20028;-78
2022/08/12 06:00:33;;;;;;;6.75;2.55;;;21.60;90.80;;;;;;5036885;28;20624;-76
2022/08/12 06:03:00;;;;;;;5.32;2.50;;;21.80;90.30;;;;;;5039332;28;20017;-76
2022/08/12 06:05:26;;;;;;;8.43;2.40;;;21.70;89.80;;;;;;5039395;28;20017;-76
2022/08/12 06:07:58;;;;;;;4.60;1.98;;;22.60;90.40;;;;;;5039555;28;20017;-78
2022/08/12 06:10:23;;;;;;;4.82;2.28;;;22.10;90.00;;;;;;5038490;28;20025;-76
2022/08/12 06:12:49;;;;;;;5.50;2.50;;;20.60;88.20;;;;;;5037832;28;20526;-76
2022/08/12 06:15:19;;;;;;;4.10;2.17;;;22.10;91.30;;;;;;5038528;28;20021;-77
2022/08/12 06:17:45;;;;;;;6.88;2.55;;;22.90;90.50;;;;;;5036179;28;20047;-78
2022/08/12 06:20:14;;;;;;;5.63;2.38;;;21.70;90.60;;;;;;5037375;28;20725;-77
2022/08/12 06:22:43;;;;;;;8.38;3.05;;;21.50;90.50;;;;;;5036971;28;20024;-76
2022/08/12 06:25:12;;;;;;;5.70;2.45;;;21.50;89.20;;;;;;5037755;28;20013;-78
2022/08/12 06:27:48;;;;;;;6.43;2.40;;;21.40;89.90;;;;;;5037347;28;20028;-77
2022/08/12 06:30:15;;;;;;;8.25;2.67;;;22.00;90.60;;;;;;5036211;28;20636;-75
2022/08/12 06:32:43;;;;;;;4.82;2.15;;;21.40;90.00;;;;;;5037125;28;20155;-77
2022/08/12 06:35:10;;;;;;;7.90;3.10;;;21.70;90.80;;;;;;5037130;28;20099;-78
2022/08/12 06:37:48;;;;;;;8.25;2.47;;;21.30;89.50;;;;;;5036666;28;20041;-76
2022/08/12 06:42:46;;;;;;;6.00;3.00;;;21.30;90.30;;;;;;5036678;28;20017;-76
2022/08/12 06:43:03;;;;;;;7.00;3.08;;;21.40;89.40;;;;;;5036769;28;20024;-76
2022/08/12 06:45:30;;;;;;;5.57;2.50;;;21.50;90.80;;;;;;5036708;28;20013;-77
2022/08/12 06:47:58;;;;;;;7.57;3.05;;;;;;;;;;5034517;28;20028;-77
2022/08/12 06:50:25;;;;;;;7.15;2.92;;;21.50;89.60;;;;;;5035897;28;20025;-80
2022/08/12 06:52:51;;;;;;;5.57;2.72;;;21.40;89.50;;;;;;5035672;28;20025;-76
2022/08/12 06:55:24;;;;;;;6.07;2.55;;;21.40;89.80;;;;;;5034943;28;20120;-76
2022/08/12 06:58:00;;;;;;;6.80;2.95;;;21.60;91.20;;;;;;5036416;28;20028;-75
2022/08/12 07:00:29;;;;;;;7.28;2.90;;;21.60;90.00;;;;;;5037763;28;20024;-75
2022/08/12 07:02:59;;;;;;;10.18;3.00;;;21.80;90.40;;;;;;5037811;28;20079;-78
2022/08/12 07:05:26;;;;;;;7.53;2.83;;;21.80;91.00;;;;;;5037387;28;20020;-76
2022/08/12 07:07:52;;;;;;;5.90;3.20;;;;;;;;;;5037125;28;20036;-76
2022/08/12 07:10:22;;;;;;;7.45;3.35;;;21.90;88.90;;;;;;5037170;28;20112;-76
2022/08/12 07:12:53;;;;;;;7.43;2.92;;;21.60;90.50;;;;;;5035214;28;20037;-76
2022/08/12 07:15:24;;;;;;;10.30;3.22;;;20.60;90.00;;;;;;5037016;28;20712;-75
2022/08/12 07:18:10;;;;;;;10.95;4.13;;;22.00;88.40;;;;;;5035908;28;20070;-76
2022/08/12 07:20:37;;;;;;;9.43;4.40;;;;;;;;;;5036918;28;20667;-75
2022/08/12 07:23:05;;;;;;;7.18;2.97;;;21.90;88.90;;;;;;5039459;28;20074;-75
2022/08/12 07:25:36;;;;;;;9.30;3.35;;;21.80;89.70;;;;;;5045592;28;20688;-74
2022/08/12 07:28:23;;;;;;;8.00;3.33;;;22.10;89.10;;;;;;5043866;28;20021;-75
2022/08/12 07:30:51;;;;;;;8.57;3.70;;;22.20;90.50;;;;;;5044514;28;20728;-75
2022/08/12 07:33:21;;;;;;;7.72;2.85;;;21.40;88.60;;;;;;5050251;28;20055;-76
2022/08/12 07:36:13;;;;;;;9.10;3.60;;;21.80;90.00;;;;;;5047341;28;20081;-73
2022/08/12 07:38:43;;;;;;;7.35;3.15;;;21.70;88.40;;;;;;5043698;28;20037;-74
2022/08/12 07:41:18;;;;;;;7.60;3.35;;;21.30;89.10;;;;;;5038275;28;20760;-75
2022/08/12 07:43:44;;;;;;;8.57;4.30;;;;;;;;;;5053306;28;20104;-76
2022/08/12 07:46:13;;;;;;;8.43;3.03;;;20.80;90.70;;;;;;5052590;28;20124;-77
2022/08/12 07:48:58;;;;;;;7.50;3.88;;;20.80;91.10;;;;;;5042713;28;20537;-78
2022/08/12 07:51:24;;;;;;;7.93;4.05;;;20.60;91.30;;;;;;5039603;28;20049;-79
2022/08/12 07:53:51;;;;;;;7.57;4.03;;;22.40;91.80;;;;;;5040548;28;20217;-81
2022/08/12 07:56:18;;;;;;;7.10;3.63;;;20.50;91.40;;;;;;5040427;28;20029;-77
2022/08/12 07:58:45;;;;;;;6.90;3.22;;;20.60;91.30;;;;;;5041342;28;20447;-76
2022/08/12 08:01:14;;;;;;;8.55;3.38;;;20.70;91.40;;;;;;5041045;28;20092;-76
2022/08/12 08:04:54;;;;;;;8.43;4.18;;;20.70;91.70;;;;;;5042615;28;20082;-76
2022/08/12 08:06:32;;;;;;;9.13;3.65;;;20.90;91.20;;;;;;5041326;28;20095;-77
2022/08/12 08:09:00;;;;;;;9.77;4.13;;;20.80;91.70;;;;;;5040452;28;20623;-76
2022/08/12 08:14:11;;;;;;;7.32;3.50;;;21.30;91.50;;;;;;5039060;28;20036;-78
2022/08/12 08:16:39;;;;;;;8.27;4.10;;;21.10;91.30;;;;;;5038537;28;20020;-82
2022/08/12 08:19:18;;;;;;;8.43;4.10;;;20.70;91.90;;;;;;5039789;28;20566;-77
2022/08/12 08:21:46;;;;;;;8.43;4.20;;;20.90;91.30;;;;;;5039846;28;20025;-80
2022/08/12 08:24:18;;;;;;;7.00;3.42;;;19.80;91.70;;;;;;5039841;28;20092;-79
2022/08/12 08:26:52;;;;;;;8.75;4.22;;;20.90;92.20;;;;;;5041708;28;20031;-78
2022/08/12 08:29:23;;;;;;;7.13;3.92;;;20.70;91.50;;;;;;5048493;28;20028;-78
2022/08/12 08:31:53;;;;;;;6.15;3.58;;;21.30;91.70;;;;;;5049192;28;20037;-83
2022/08/12 08:34:19;;;;;;;9.35;4.53;;;21.00;91.40;;;;;;5048966;28;20012;-76
2022/08/12 08:36:45;;;;;;;9.77;4.72;;;21.10;91.30;;;;;;5044909;28;20065;-77
2022/08/12 08:39:15;;;;;;;8.73;3.42;;;21.00;91.70;;;;;;5038976;28;20023;-75
2022/08/12 08:44:26;;;;;;;7.65;3.70;;;21.40;92.00;;;;;;5021831;28;20733;-76
2022/08/12 08:46:54;;;;;;;7.68;3.38;;;21.60;91.20;;;;;;5021067;28;20112;-74
2022/08/12 08:49:21;;;;;;;8.82;3.75;;;;;;;;;;5021391;28;20018;-75
2022/08/12 08:51:48;;;;;;;8.85;4.13;;;21.50;90.30;;;;;;5034579;28;20021;-75
2022/08/12 08:54:15;;;;;;;10.15;4.15;;;21.70;90.80;;;;;;5035165;28;20556;-75
2022/08/12 08:56:50;;;;;;;11.23;3.58;;;21.30;91.50;;;;;;5032125;28;20025;-76
2022/08/12 08:59:18;;;;;;;7.18;3.50;;;21.40;91.00;;;;;;5029762;28;20016;-78
2022/08/12 09:01:44;;;;;;;9.10;4.18;;;21.40;91.40;;;;;;5042179;28;20111;-76
2022/08/12 09:04:10;;;;;;;6.32;3.33;;;21.50;90.70;;;;;;5042827;28;20013;-77
2022/08/12 09:06:46;;;;;;;11.35;3.58;;;21.30;90.70;;;;;;5041502;28;20021;-79
2022/08/12 09:09:16;;;;;;;10.88;3.63;;;21.60;91.20;;;;;;5040323;28;20647;-76
2022/08/12 09:14:27;;;;;;;8.40;3.30;;;21.60;91.20;;;;;;5041708;28;20310;-76
2022/08/12 09:16:53;;;;;;;11.45;3.97;;;21.80;91.00;;;;;;5042869;28;20703;-77
2022/08/12 09:19:19;;;;;;;9.35;3.95;;;20.00;89.60;;;;;;5043008;28;20550;-77
2022/08/12 09:21:47;;;;;;;6.65;3.33;;;21.80;90.50;;;;;;5040507;28;20705;-76
2022/08/12 09:24:17;;;;;;;6.65;3.17;;;21.90;90.90;;;;;;5038189;28;20667;-78
2022/08/12 09:26:45;;;;;;;6.47;3.20;;;21.90;89.90;;;;;;5039168;28;20269;-75
2022/08/12 09:29:15;;;;;;;8.30;4.20;;;22.50;90.30;;;;;;5038833;28;20048;-78
2022/08/12 09:31:41;;;;;;;9.52;4.38;;;22.10;90.00;;;;;;5038023;28;20056;-76
2022/08/12 09:34:09;;;;;;;9.68;4.25;;;21.70;89.60;;;;;;5037601;28;20009;-85
2022/08/12 09:36:37;;;;;;;8.38;3.13;;;19.40;88.90;;;;;;5037871;28;20044;-75
2022/08/12 09:39:07;;;;;;;9.52;3.67;;;23.80;90.70;;;;;;5043343;28;20024;-82
2022/08/12 09:41:44;;;;;;;6.57;3.08;;;22.50;88.70;;;;;;5055633;28;20067;-77
2022/08/12 09:46:55;;;;;;;9.63;3.75;;;21.10;88.80;;;;;;5057711;28;20090;-78
2022/08/12 09:49:23;;;;;;;7.68;3.45;;;;;;;;;;5056741;28;20531;-81
2022/08/12 09:51:49;;;;;;;8.05;4.00;;;23.10;87.20;;;;;;5057861;28;20410;-76
2022/08/12 09:54:16;;;;;;;8.70;3.80;;;23.80;88.40;;;;;;5056700;28;20028;-77
2022/08/12 09:56:44;;;;;;;10.38;3.60;;;23.40;88.40;;;;;;5057333;28;20101;-76
2022/08/12 09:59:15;;;;;;;10.27;3.95;;;23.50;86.80;;;;;;5055836;28;20020;-76
2022/08/12 10:01:47;;;;;;;6.65;3.55;;;23.80;85.60;;;;;;5043141;28;20013;-79
2022/08/12 10:04:13;;;;;;;7.13;3.00;;;24.10;83.80;;;;;;5039152;28;20019;-78
2022/08/12 10:06:47;;;;;;;8.63;3.85;;;24.40;82.10;;;;;;5040724;28;20298;-79
2022/08/12 10:09:18;;;;;;;7.22;2.85;;;25.70;82.30;;;;;;5037598;28;20078;-78
2022/08/12 10:14:51;;;;;;;8.75;3.88;;;25.00;80.50;;;;;;5059729;28;20024;-81
2022/08/12 10:17:25;;;;;;;9.18;3.15;;;25.50;80.00;;;;;;5056903;28;20020;-80
2022/08/12 10:20:04;;;;;;;8.18;3.38;;;26.00;81.30;;;;;;5056209;28;20017;-81
2022/08/12 10:22:33;;;;;;;9.65;3.53;;;28.40;80.90;;;;;;5058486;28;20094;-78
2022/08/12 10:30:33;;;;;;;7.45;3.58;;;26.60;76.10;;;;;;5059847;28;20078;-79
2022/08/12 10:32:58;;;;;;;8.50;3.72;;;26.40;73.20;;;;;;5057474;28;20470;-80
2022/08/12 10:38:38;;;;;;;6.85;3.00;;;27.00;74.90;;;;;;5392050;22;20048;-79
2022/08/12 10:44:23;;;;;;;10.07;3.88;;;26.70;73.90;;;;;;5038425;28;20024;-84
2022/08/12 10:46:54;;;;;;;6.78;2.75;;;27.30;73.90;;;;;;5036905;28;20049;-81
2022/08/12 10:49:33;;;;;;;5.57;2.50;;;28.90;74.40;;;;;;5035390;28;20156;-80
2022/08/12 10:52:16;;;;;;;5.60;2.40;;;27.30;71.50;;;;;;5020456;28;20604;-82
2022/08/12 10:54:54;;;;;;;6.43;2.38;;;27.60;70.00;;;;;;5018640;28;20725;-79
2022/08/12 10:57:37;;;;;;;4.38;2.22;;;28.80;68.40;;;;;;5018960;28;20021;-82
2022/08/12 11:00:26;;;;;;;7.85;2.30;;;28.10;68.20;;;;;;5020018;28;20029;-78
2022/08/12 11:03:06;;;;;;;5.03;2.15;;;28.70;64.20;;;;;;5018467;28;20021;-79
2022/08/12 11:05:37;;;;;;;4.55;2.00;;;28.70;65.50;;;;;;5035111;28;20029;-78
2022/08/12 11:08:26;;;;;;;4.43;2.22;;;29.00;61.90;;;;;;5026322;28;20040;-78
2022/08/12 11:10:58;;;;;;;5.38;2.25;;;29.60;61.30;;;;;;5025507;28;20025;-82
2022/08/12 11:16:42;;;;;;;5.30;2.10;;;29.80;62.50;;;;;;5042457;28;20518;-84
2022/08/12 11:19:31;;;;;;;4.32;1.98;;;31.00;60.50;;;;;;5033280;28;20577;-86
2022/08/12 11:22:21;;;;;;;4.15;2.15;;;30.90;61.30;;;;;;5024485;28;20526;-89
2022/08/12 11:24:47;;;;;;;5.47;2.20;;;30.60;58.20;;;;;;5023957;28;20114;-80
2022/08/12 11:30:58;;;;;;;4.70;2.10;;;31.00;55.70;;;;;;4962792;28;20183;-83
2022/08/12 11:33:41;;;;;;;3.15;2.03;;;31.00;55.50;;;;;;4950220;28;20039;-84
2022/08/12 11:36:35;;;;;;;5.03;2.05;;;30.30;54.00;;;;;;4950653;28;20027;-83
2022/08/12 11:39:01;;;;;;;5.32;2.00;;;29.70;52.50;;;;;;4948509;28;20785;-81
2022/08/12 11:41:32;;;;;;;4.72;1.98;;;31.20;53.90;;;;;;4940488;29;20115;-78
2022/08/12 11:44:13;;;;;;;6.95;2.50;;;31.50;53.30;;;;;;4940548;28;20034;-84
2022/08/12 11:46:40;;;;;;;4.78;2.08;;;31.50;53.90;;;;;;4939976;28;20042;-77
2022/08/12 11:49:07;;;;;;;4.82;2.22;;;31.40;52.60;;;;;;4940954;28;20183;-78
2022/08/12 11:51:36;;;;;;;5.97;2.78;;;31.10;53.10;;;;;;4953848;28;20074;-78
2022/08/12 11:54:10;;;;;;;4.20;2.08;;;31.20;53.70;;;;;;4961385;28;20715;-79
2022/08/12 11:56:39;;;;;;;8.45;2.40;;;33.00;54.80;;;;;;4941296;28;20022;-77
2022/08/12 11:59:05;;;;;;;5.15;2.40;;;34.30;54.60;;;;;;4945946;28;20030;-78
2022/08/12 12:01:34;;;;;;;4.22;2.00;;;32.00;52.90;;;;;;4960070;28;20098;-77
2022/08/12 12:04:00;;;;;;;5.90;2.38;;;32.10;51.40;;;;;;4941429;29;20533;-78
2022/08/12 12:06:26;;;;;;;6.97;2.58;;;31.40;51.90;;;;;;4940156;29;20031;-77
2022/08/12 12:08:55;;;;;;;5.53;2.50;;;30.90;53.40;;;;;;5014388;28;20757;-77
2022/08/12 12:11:22;;;;;;;4.20;2.13;;;30.30;53.00;;;;;;5016447;28;20057;-77
2022/08/12 12:13:49;;;;;;;5.38;2.33;;;29.60;53.70;;;;;;5001680;28;20041;-78
2022/08/12 12:16:18;;;;;;;6.18;3.00;;;29.50;55.20;;;;;;5001693;28;20168;-77
2022/08/12 12:18:45;;;;;;;5.68;2.53;;;29.50;55.70;;;;;;5001559;28;20041;-78
2022/08/12 12:21:11;;;;;;;5.03;2.22;;;29.30;55.90;;;;;;5001400;28;20048;-79
2022/08/12 12:23:37;;;;;;;11.25;3.90;;;29.20;57.20;;;;;;5002836;28;20101;-77
2022/08/12 12:26:05;;;;;;;6.45;2.83;;;29.80;57.90;;;;;;5003880;28;20028;-78
2022/08/12 12:28:37;;;;;;;11.60;4.50;;;30.00;55.80;;;;;;5020167;28;20021;-79
2022/08/12 12:31:04;;;;;;;6.95;2.75;;;31.20;55.70;;;;;;5018016;28;20025;-81
2022/08/12 12:33:33;;;;;;;4.72;2.20;;;30.60;52.90;;;;;;5001444;28;20100;-77
2022/08/12 12:36:02;;;;;;;7.35;3.00;;;30.50;51.80;;;;;;5000036;28;20018;-77
2022/08/12 12:38:27;;;;;;;6.90;2.40;;;30.50;52.20;;;;;;5017902;28;20133;-82
2022/08/12 12:40:54;;;;;;;5.32;2.65;;;30.20;52.60;;;;;;5018951;28;20132;-77
2022/08/12 12:43:30;;;;;;;4.32;2.42;;;29.70;54.40;;;;;;5020760;28;20589;-77
2022/08/12 12:45:59;;;;;;;9.45;3.20;;;29.30;54.20;;;;;;5035090;28;20032;-78
2022/08/12 12:48:24;;;;;;;13.07;5.97;;;29.10;56.00;;;;;;5020314;28;20022;-77
2022/08/12 12:53:42;;;;;;;7.38;2.75;;;28.80;54.70;;;;;;5020393;28;20052;-79
2022/08/12 12:57:14;;;;;;;;;;;;;;;;;;;;;
2022/08/12 13:00:20;;;;;;;4.28;2.33;;;30.00;54.90;;;;;;5010213;28;20021;-80
2022/08/12 13:02:56;;;;;;;6.88;2.42;;;30.60;55.60;;;;;;5020175;28;20029;-81
2022/08/12 13:05:28;;;;;;;5.93;2.70;;;31.60;53.50;;;;;;5022664;28;20025;-81
2022/08/12 13:08:23;;;;;;;4.22;2.15;;;32.90;52.30;;;;;;5016148;28;20124;-78
2022/08/12 13:10:53;;;;;;;5.50;2.70;;;33.40;49.30;;;;;;4999725;28;20033;-79
2022/08/12 13:16:03;;;;;;;5.80;2.10;;;34.40;47.10;;;;;;5159361;22;20079;-78
2022/08/12 13:18:35;;;;;;;5.65;2.70;;;33.70;49.50;;;;;;5058944;28;20020;-80
2022/08/12 13:21:05;;;;;;;3.78;2.10;;;33.40;49.10;;;;;;5058344;28;20194;-81
2022/08/12 13:23:44;;;;;;;4.22;2.40;;;28.90;47.20;;;;;;5058827;28;20025;-79
2022/08/12 13:26:20;;;;;;;3.80;2.53;;;32.80;51.00;;;;;;5040883;28;20587;-80
2022/08/12 13:28:53;;;;;;;6.18;2.85;;;31.60;51.30;;;;;;5041235;28;20028;-79
2022/08/12 13:31:20;;;;;;;4.65;2.53;;;31.10;52.10;;;;;;5040260;28;20677;-81
2022/08/12 13:33:50;;;;;;;8.93;4.68;;;31.50;51.10;;;;;;5040936;28;20048;-79
2022/08/12 13:36:22;;;;;;;6.90;3.30;;;30.90;52.20;;;;;;5046149;28;20027;-81
2022/08/12 13:38:54;;;;;;;6.60;3.13;;;30.90;51.70;;;;;;5061264;28;20121;-80
2022/08/12 13:41:34;;;;;;;8.52;3.50;;;30.30;52.80;;;;;;5061008;28;20035;-79
2022/08/12 13:44:05;;;;;;;6.75;3.10;;;30.80;52.70;;;;;;5036150;28;20711;-82
2022/08/12 13:46:39;;;;;;;6.90;2.97;;;30.50;51.80;;;;;;5024579;28;20060;-79
2022/08/12 13:49:12;;;;;;;5.43;2.75;;;30.50;52.80;;;;;;4997904;28;20025;-78
2022/08/12 13:51:39;;;;;;;;;;;29.90;54.80;;;;;;4981199;28;20099;-78
2022/08/12 13:54:07;;;;;;;20.02;7.25;;;29.80;53.50;;;;;;4996496;28;19901;-80
2022/08/12 13:56:35;;;;;;;19.40;7.15;;;30.00;53.80;;;;;;4979518;28;20042;-83
2022/08/12 13:59:09;;;;;;;26.67;10.60;;;29.50;52.80;;;;;;4996550;28;20041;-83
2022/08/12 14:01:37;;;;;;;12.00;5.70;;;26.50;52.70;;;;;;4980338;28;20022;-79
2022/08/12 14:04:12;;;;;;;10.10;4.03;;;28.90;54.10;;;;;;4978169;28;20026;-78
2022/08/12 14:06:41;;;;;;;10.10;4.63;;;28.70;57.60;;;;;;4977044;28;20027;-78
2022/08/12 14:09:17;;;;;;;13.40;5.40;;;28.50;55.40;;;;;;4988017;28;20029;-78
2022/08/12 14:12:04;;;;;;;12.25;5.75;;;28.10;57.60;;;;;;4999004;28;20029;-79
2022/08/12 14:14:49;;;;;;;;;;;;;;;;;;;;;
2022/08/12 14:17:39;;;;;;;9.75;5.30;;;27.50;56.40;;;;;;4998218;28;20604;-79
2022/08/12 14:20:15;;;;;;;5.30;2.67;;;27.50;57.40;;;;;;4981769;28;20054;-80
2022/08/12 14:22:50;;;;;;;7.72;3.53;;;27.00;57.50;;;;;;4980902;28;20080;-78
2022/08/12 14:25:27;;;;;;;6.63;3.25;;;26.20;57.50;;;;;;4980574;28;20029;-79
2022/08/12 14:28:10;;;;;;;5.95;3.20;;;26.90;58.80;;;;;;4982512;28;20531;-80
2022/08/12 14:30:57;;;;;;;6.68;3.03;;;26.70;58.30;;;;;;4989591;28;20176;-78
2022/08/12 14:33:32;;;;;;;5.35;2.80;;;26.00;59.00;;;;;;5007240;22;20037;-79
2022/08/12 14:36:05;;;;;;;4.10;2.58;;;26.00;60.00;;;;;;4984018;28;20103;-88
2022/08/12 14:38:51;;;;;;;5.32;2.17;;;27.80;61.40;;;;;;4980129;28;20026;-78
2022/08/12 14:41:25;;;;;;;4.78;2.55;;;25.80;59.70;;;;;;4970322;28;20022;-88
2022/08/12 14:44:05;;;;;;;5.53;2.40;;;25.70;61.90;;;;;;4975160;28;20030;-83
2022/08/12 14:46:45;;;;;;;6.68;2.58;;;25.50;62.80;;;;;;4958942;28;20683;-80
2022/08/12 14:49:21;;;;;;;5.93;2.92;;;25.10;60.90;;;;;;4970251;28;20731;-80
2022/08/12 14:51:57;;;;;;;5.85;2.63;;;25.40;63.50;;;;;;4996589;23;20049;-80
2022/08/12 14:54:23;;;;;;;12.20;4.07;;;;;;;;;;4997866;28;20029;-80
2022/08/12 14:56:55;;;;;;;6.75;2.90;;;25.10;61.90;;;;;;4994521;28;20022;-79
2022/08/12 15:02:12;;;;;;;5.65;2.55;;;25.00;62.80;;;;;;5008089;28;20052;-81
2022/08/12 15:04:45;;;;;;;5.88;3.00;;;25.00;63.50;;;;;;4986492;28;20014;-79
2022/08/12 15:07:12;;;;;;;8.65;3.83;;;25.00;64.70;;;;;;4990762;28;20029;-80
2022/08/12 15:09:39;;;;;;;5.03;2.78;;;;;;;;;;5012224;28;20103;-81
2022/08/12 15:12:15;;;;;;;7.43;3.42;;;24.30;71.40;;;;;;5013786;28;20113;-79
2022/08/12 15:14:46;;;;;;;6.63;3.17;;;24.00;75.60;;;;;;4993860;28;20044;-75
2022/08/12 15:17:14;;;;;;;7.55;3.50;;;23.30;76.80;;;;;;5005192;28;20026;-78
2022/08/12 15:19:54;;;;;;;8.73;3.70;;;23.20;79.80;;;;;;5013159;28;20032;-80
2022/08/12 15:22:27;;;;;;;7.53;4.15;;;23.40;79.70;;;;;;5004588;28;20014;-77
2022/08/12 15:25:04;;;;;;;7.55;3.50;;;19.20;77.70;;;;;;4998830;28;20572;-78
2022/08/12 15:27:33;;;;;;;7.70;3.38;;;;;;;;;;5001473;28;20083;-79
2022/08/12 15:30:02;;;;;;;6.82;3.55;;;;;;;;;;5002280;28;20045;-75
2022/08/12 15:32:31;;;;;;;8.07;3.72;;;22.80;80.90;;;;;;5000134;28;20041;-77
2022/08/12 15:34:59;;;;;;;8.98;4.00;;;22.60;82.00;;;;;;5019679;28;20021;-81